Time;durP1;ratioP1;P1;durP2;ratioP2;P2;SDS_P1;SDS_P2;PMS_P1;PMS_P2;Temp;Humidity;BMP_temperature;BMP_pressure;BME280_temperature;BME280_humidity;BME280_pressure;Samples;Min_cycle;Max_cycle;Signal;HPM_P1;HPM_P2
2023/02/25 00:00:34;;;;;;;8.10;6.40;;;;;;;2.40;88.15;97107.09;1805158;79;21274;-65
2023/02/25 00:06:56;;;;;;;7.03;6.30;;;;;;;2.36;88.14;97092.75;1805069;79;21062;-68
2023/02/25 00:13:27;;;;;;;7.65;6.28;;;;;;;2.31;88.25;97094.75;1805137;79;21034;-68
2023/02/25 00:19:59;;;;;;;8.60;6.47;;;;;;;2.28;88.30;97087.20;1805156;79;21085;-66
2023/02/25 00:26:20;;;;;;;7.70;6.47;;;;;;;2.31;88.34;97071.57;1805107;79;21852;-65
2023/02/25 00:32:53;;;;;;;8.50;6.25;;;;;;;2.35;88.46;97073.08;1805562;79;21038;-68
2023/02/25 00:39:41;;;;;;;9.75;6.47;;;;;;;2.30;88.46;97068.64;1805314;79;21074;-69
2023/02/25 00:48:56;;;;;;;6.87;5.95;;;;;;;2.34;88.52;97057.23;1805219;79;21069;-68
2023/02/25 00:55:32;;;;;;;7.95;6.33;;;;;;;2.28;88.44;97048.58;1805275;79;21111;-68
2023/02/25 01:02:00;;;;;;;8.88;6.45;;;;;;;2.28;88.68;97047.29;1805283;79;21853;-67
2023/02/25 01:08:30;;;;;;;7.72;5.78;;;;;;;2.23;88.59;97035.95;1805282;79;21134;-67
2023/02/25 01:15:01;;;;;;;7.05;6.35;;;;;;;2.28;88.86;97035.70;1805203;79;21112;-69
2023/02/25 01:17:31;;;;;;;7.85;5.95;;;;;;;2.33;88.88;97025.98;1805597;79;21546;-69
2023/02/25 01:24:09;;;;;;;6.83;5.75;;;;;;;2.34;88.75;97022.47;1805516;79;21038;-68
2023/02/25 01:30:41;;;;;;;7.53;5.58;;;;;;;2.32;88.84;97011.42;1805135;79;21073;-69
2023/02/25 01:36:47;;;;;;;6.00;5.40;;;;;;;2.34;88.83;97004.45;1805428;79;21133;-70
2023/02/25 01:43:09;;;;;;;7.25;5.70;;;;;;;2.38;88.96;97004.66;1804972;79;21872;-69
2023/02/25 01:49:44;;;;;;;7.75;5.10;;;;;;;2.36;88.89;96994.89;1805552;79;21042;-69
2023/02/25 01:56:16;;;;;;;6.95;5.22;;;;;;;2.48;89.13;96999.79;1805185;79;21034;-65
2023/02/25 02:02:49;;;;;;;5.72;4.80;;;;;;;2.57;89.25;96991.98;1805200;79;21034;-67
2023/02/25 02:09:28;;;;;;;6.45;5.00;;;;;;;2.64;89.29;96994.58;1805164;79;21102;-68
2023/02/25 02:16:15;;;;;;;7.03;4.78;;;;;;;2.65;89.14;96980.77;1805209;79;21081;-68
2023/02/25 02:23:15;;;;;;;5.30;4.80;;;;;;;2.61;89.12;96981.88;1805483;79;21065;-64
2023/02/25 02:29:58;;;;;;;5.58;5.08;;;;;;;2.63;88.98;96977.02;1805059;79;21034;-69
2023/02/25 02:36:52;;;;;;;5.70;5.20;;;;;;;2.60;88.95;96968.61;1805191;79;21113;-65
2023/02/25 02:43:52;;;;;;;6.22;5.42;;;;;;;2.57;88.97;96968.80;1805210;79;21101;-64
2023/02/25 02:54:02;;;;;;;6.75;5.90;;;;;;;2.59;89.13;96960.53;1649128;87;21427;-68
2023/02/25 03:00:38;;;;;;;6.30;5.70;;;;;;;2.59;88.97;96956.66;1653704;86;21131;-67
2023/02/25 03:07:11;;;;;;;6.25;5.65;;;;;;;2.59;89.12;96951.52;1653626;87;21076;-67
2023/02/25 03:13:17;;;;;;;8.18;5.67;;;;;;;2.61;89.08;96949.69;1653169;87;21890;-63
2023/02/25 03:20:18;;;;;;;6.50;4.90;;;;;;;2.62;89.23;96946.17;1654025;86;21097;-69
2023/02/25 03:26:41;;;;;;;6.87;5.67;;;;;;;2.59;89.11;96946.36;1653055;87;21324;-69
2023/02/25 03:33:17;;;;;;;7.00;5.30;;;;;;;2.57;89.11;96948.19;1653654;86;21883;-66
2023/02/25 03:39:54;;;;;;;5.50;5.00;;;;;;;2.59;89.11;96943.78;1653508;87;21081;-68
2023/02/25 03:46:29;;;;;;;5.62;4.62;;;;;;;2.58;89.08;96949.87;1653830;86;21103;-70
2023/02/25 03:56:04;;;;;;;5.30;4.45;;;;;;;2.53;88.86;96951.88;1621227;88;21125;-68
2023/02/25 04:02:35;;;;;;;5.65;5.08;;;;;;;2.57;89.22;96948.19;1621355;88;21589;-66
2023/02/25 04:08:53;;;;;;;5.37;4.80;;;;;;;2.61;89.05;96949.69;1621052;88;21964;-69
2023/02/25 04:14:50;;;;;;;7.33;5.05;;;;;;;2.56;88.97;96946.55;1621321;88;21086;-63
2023/02/25 04:21:38;;;;;;;8.18;4.75;;;;;;;2.62;89.03;96951.33;1621221;88;21149;-69
2023/02/25 04:27:55;;;;;;;5.50;5.00;;;;;;;2.62;89.07;96951.33;1620960;88;21086;-69
2023/02/25 04:34:25;;;;;;;7.83;5.10;;;;;;;2.69;89.19;96946.20;1621385;88;21417;-70
2023/02/25 04:41:00;;;;;;;5.08;4.58;;;;;;;2.65;89.01;96946.81;1621670;88;21097;-70
2023/02/25 04:47:32;;;;;;;7.05;4.80;;;;;;;2.68;89.19;96938.90;1621907;88;21205;-70
2023/02/25 04:57:50;;;;;;;5.28;4.78;;;;;;;2.67;88.85;96949.31;1668189;86;21742;-69
2023/02/25 05:04:22;;;;;;;5.95;5.12;;;;;;;2.71;89.16;96944.33;1649098;87;21081;-66
2023/02/25 05:10:54;;;;;;;6.53;5.08;;;;;;;2.71;89.13;96942.22;1649224;87;21333;-68
2023/02/25 05:17:23;;;;;;;5.30;4.80;;;;;;;2.72;89.19;96939.56;1651384;86;21097;-69
2023/02/25 05:23:55;;;;;;;4.80;4.33;;;;;;;2.76;89.23;96935.05;1649210;87;21066;-69
2023/02/25 05:30:26;;;;;;;6.37;4.75;;;;;;;2.83;89.23;96935.88;1649141;87;21142;-69
2023/02/25 05:37:00;;;;;;;5.50;4.90;;;;;;;2.82;89.09;96943.23;1649291;87;21569;-70
2023/02/25 05:39:32;;;;;;;5.58;4.45;;;;;;;2.82;89.12;96948.38;1651434;87;21153;-68
2023/02/25 05:42:05;;;;;;;7.53;4.55;;;;;;;2.82;89.08;96948.38;1651426;87;21077;-65
2023/02/25 05:44:40;;;;;;;7.53;4.70;;;;;;;2.84;88.98;96947.84;1649259;87;21184;-68
2023/02/25 05:47:13;;;;;;;5.20;4.50;;;;;;;2.83;89.00;96950.05;1649200;86;21101;-71
2023/02/25 05:49:45;;;;;;;5.17;4.67;;;;;;;2.85;89.08;96952.05;1668270;86;21025;-70
2023/02/25 05:52:16;;;;;;;5.83;5.33;;;;;;;2.87;89.13;96950.69;1649445;87;21078;-71
2023/02/25 05:54:49;;;;;;;6.28;5.45;;;;;;;2.90;89.15;96953.91;1649660;86;21186;-71
2023/02/25 05:57:21;;;;;;;8.90;7.65;;;;;;;2.91;89.13;96955.58;1649483;87;21193;-71
2023/02/25 05:59:52;;;;;;;9.83;7.08;;;;;;;2.93;89.12;96959.80;1649045;87;21621;-70
2023/02/25 06:02:24;;;;;;;8.90;7.03;;;;;;;2.93;89.03;96962.38;1667773;86;21005;-71
2023/02/25 06:08:57;;;;;;;15.03;9.30;;;;;;;2.87;88.80;96961.00;1649185;87;21081;-70
2023/02/25 06:15:29;;;;;;;13.53;10.85;;;;;;;2.78;88.90;96970.11;1651321;86;21332;-69
2023/02/25 06:21:25;;;;;;;12.65;9.35;;;;;;;2.81;89.05;96978.95;1669445;85;21068;-66
2023/02/25 06:28:02;;;;;;;9.45;8.23;;;;;;;2.82;88.99;96979.30;1648949;87;21117;-69
2023/02/25 06:34:33;;;;;;;9.80;7.45;;;;;;;2.87;89.20;96987.59;1651606;86;21066;-67
2023/02/25 06:41:16;;;;;;;8.00;7.20;;;;;;;2.99;89.05;96986.48;1649198;87;21106;-65
2023/02/25 06:47:46;;;;;;;8.45;7.08;;;;;;;3.06;89.04;96996.81;1648962;87;21132;-67
2023/02/25 06:50:19;;;;;;;8.15;7.35;;;;;;;3.07;88.96;96998.45;1666002;86;21066;-66
2023/02/25 06:56:25;;;;;;;7.72;6.40;;;;;;;3.17;89.04;96995.70;1648975;85;21069;-64
2023/02/25 07:02:21;;;;;;;6.83;6.12;;;;;;;3.25;89.02;97007.66;1650953;87;21114;-67
2023/02/25 07:08:51;;;;;;;7.50;6.12;;;;;;;3.42;89.04;97010.94;1651312;86;21069;-67
2023/02/25 07:15:23;;;;;;;8.70;6.62;;;;;;;3.61;89.26;97011.45;1649016;87;21181;-68
2023/02/25 07:17:54;;;;;;;7.37;6.53;;;;;;;3.73;89.00;97017.62;1668240;86;21036;-63
2023/02/25 07:20:27;;;;;;;8.85;7.10;;;;;;;3.81;89.07;97016.22;1649279;87;21046;-65
2023/02/25 07:22:58;;;;;;;9.63;6.55;;;;;;;3.89;88.89;97021.34;1651351;87;21069;-65
2023/02/25 07:25:29;;;;;;;8.33;6.15;;;;;;;3.95;89.01;97014.48;1668443;85;21041;-66
2023/02/25 07:28:00;;;;;;;6.78;6.03;;;;;;;3.99;88.96;97021.13;1649317;87;21097;-66
2023/02/25 07:30:30;;;;;;;6.70;5.80;;;;;;;4.00;88.88;97021.48;1659445;86;21029;-67
2023/02/25 07:33:07;;;;;;;8.68;6.45;;;;;;;4.04;89.01;97024.25;1632239;87;21045;-63
2023/02/25 07:35:35;;;;;;;7.50;6.37;;;;;;;4.05;88.92;97031.06;1650330;87;21089;-64
2023/02/25 07:45:19;;;;;;;6.72;6.03;;;;;;;4.18;88.99;97037.10;1649428;87;21074;-63
2023/02/25 07:47:52;;;;;;;5.90;5.30;;;;;;;4.17;88.84;97040.62;1668078;86;21136;-62
2023/02/25 07:50:24;;;;;;;6.05;5.37;;;;;;;4.20;88.90;97043.00;1649218;87;21112;-62
2023/02/25 07:52:54;;;;;;;6.28;5.42;;;;;;;4.24;88.96;97048.33;1650920;87;21152;-58
2023/02/25 07:55:29;;;;;;;5.10;4.60;;;;;;;4.22;88.83;97051.46;1648772;87;21053;-65
2023/02/25 07:58:00;;;;;;;4.97;3.72;;;;;;;4.19;88.69;97049.08;1649188;86;21173;-64
2023/02/25 08:00:31;;;;;;;3.83;3.37;;;;;;;4.17;88.60;97050.95;1668287;86;21104;-65
2023/02/25 08:03:03;;;;;;;3.62;3.33;;;;;;;4.15;88.56;97056.67;1649180;87;21045;-65
2023/02/25 08:05:37;;;;;;;3.92;3.08;;;;;;;4.14;88.38;97058.87;1668233;86;21041;-61
2023/02/25 08:08:08;;;;;;;3.05;2.85;;;;;;;4.11;88.42;97060.83;1649358;87;21104;-64
2023/02/25 08:14:39;;;;;;;3.10;2.80;;;;;;;4.15;88.40;97069.58;1649051;87;21145;-65
2023/02/25 08:17:09;;;;;;;2.35;2.15;;;;;;;4.22;88.23;97077.29;1651325;87;21053;-62
2023/02/25 08:19:42;;;;;;;2.50;2.30;;;;;;;4.31;88.42;97072.47;1648698;87;21045;-63
2023/02/25 08:22:13;;;;;;;2.40;2.20;;;;;;;4.40;88.39;97069.31;1650979;87;20986;-64
2023/02/25 08:24:44;;;;;;;4.08;2.87;;;;;;;4.46;88.24;97067.61;1648962;87;21121;-63
2023/02/25 08:27:16;;;;;;;3.58;2.80;;;;;;;4.57;88.58;97079.38;1668170;86;21093;-61
2023/02/25 08:29:48;;;;;;;5.12;3.50;;;;;;;4.69;88.46;97081.14;1630309;87;21152;-59
2023/02/25 08:32:21;;;;;;;4.70;3.85;;;;;;;4.82;88.46;97080.36;1654368;86;21521;-60
2023/02/25 08:34:52;;;;;;;5.62;4.87;;;;;;;4.86;88.19;97081.80;1669345;85;21124;-60
2023/02/25 08:37:24;;;;;;;7.85;5.95;;;;;;;4.91;88.22;97086.20;1649230;87;21010;-63
2023/02/25 08:39:56;;;;;;;8.93;5.87;;;;;;;4.88;87.98;97089.81;1651209;87;21083;-63
2023/02/25 08:42:29;;;;;;;7.50;6.50;;;;;;;4.84;88.11;97095.28;1669422;86;21048;-63
2023/02/25 08:45:01;;;;;;;8.63;5.70;;;;;;;4.81;87.92;97096.78;1649295;86;21070;-63
2023/02/25 08:51:33;;;;;;;6.47;5.10;;;;;;;4.51;87.64;97099.16;1651631;86;21057;-63
2023/02/25 09:01:56;;;;;;;8.65;5.70;;;;;;;4.16;87.89;97113.84;1617074;89;21079;-65
2023/02/25 09:04:28;;;;;;;6.97;5.28;;;;;;;4.02;87.79;97126.80;1617046;89;21705;-64
2023/02/25 09:07:00;;;;;;;7.92;5.30;;;;;;;3.99;87.85;97130.86;1630087;87;21034;-64
2023/02/25 09:13:31;;;;;;;9.13;5.10;;;;;;;3.83;87.88;97132.72;1649515;86;21070;-64
2023/02/25 09:20:05;;;;;;;7.17;4.87;;;;;;;3.79;87.84;97141.94;1649268;86;21838;-66
2023/02/25 09:26:34;;;;;;;6.72;4.22;;;;;;;3.66;87.51;97153.92;1649294;86;21605;-66
2023/02/25 09:32:51;;;;;;;7.20;4.40;;;;;;;3.56;87.52;97165.74;1616817;89;21110;-67
2023/02/25 09:39:23;;;;;;;5.97;4.03;;;;;;;3.50;87.41;97180.27;1617305;89;21169;-67
2023/02/25 09:45:54;;;;;;;4.60;2.25;;;;;;;3.53;87.71;97183.98;1617274;89;21616;-67
2023/02/25 09:48:32;;;;;;;5.08;2.08;;;;;;;3.48;87.32;97188.58;1616126;88;21057;-67
2023/02/25 09:54:48;;;;;;;3.70;1.82;;;;;;;3.40;87.28;97197.23;1645162;87;20413;-64
2023/02/25 09:57:22;;;;;;;4.35;1.70;;;;;;;3.29;87.31;97205.13;1617645;88;21121;-63
2023/02/25 09:59:53;;;;;;;3.00;1.77;;;;;;;3.25;87.33;97208.81;1619237;88;21038;-65
2023/02/25 10:02:44;;;;;;;3.87;1.77;;;;;;;3.28;87.25;97207.34;1619170;88;21087;-64
2023/02/25 10:09:23;;;;;;;2.72;1.90;;;;;;;3.25;87.17;97213.97;1618217;88;21082;-66
2023/02/25 10:16:18;;;;;;;3.47;1.65;;;;;;;3.45;87.38;97238.61;1618972;88;21638;-63
2023/02/25 10:19:14;;;;;;;2.98;1.60;;;;;;;3.47;87.26;97243.66;1619399;88;21882;-66
2023/02/25 10:22:27;;;;;;;2.92;1.62;;;;;;;3.35;87.16;97243.45;1552351;91;21158;-67
2023/02/25 10:25:16;;;;;;;3.58;1.70;;;;;;;3.27;87.34;97253.84;1579817;91;21068;-66
2023/02/25 10:28:04;;;;;;;3.27;1.50;;;;;;;3.20;87.19;97249.50;1581176;91;21076;-67
2023/02/25 10:30:56;;;;;;;2.95;1.52;;;;;;;3.17;87.16;97256.13;1567767;91;21092;-66
2023/02/25 10:33:33;;;;;;;2.30;1.77;;;;;;;3.16;87.49;97259.59;1581384;91;21069;-67
2023/02/25 10:36:13;;;;;;;1.17;1.00;;;;;;;3.22;87.34;97257.98;1577505;91;21064;-69
2023/02/25 10:38:53;;;;;;;2.05;1.20;;;;;;;3.27;87.32;97266.27;1581734;91;21092;-69
2023/02/25 10:41:27;;;;;;;2.92;1.05;;;;;;;3.34;87.68;97272.75;1581621;91;21635;-67
2023/02/25 10:43:57;;;;;;;1.55;0.98;;;;;;;3.41;87.39;97275.80;1581699;91;21209;-66
2023/02/25 10:46:53;;;;;;;2.27;1.27;;;;;;;3.49;87.61;97279.23;1581548;91;21080;-65
2023/02/25 10:49:27;;;;;;;3.08;1.50;;;;;;;3.51;87.63;97281.28;1581593;91;21096;-66
2023/02/25 10:52:09;;;;;;;3.47;2.02;;;;;;;3.57;87.67;97286.08;1581474;91;21080;-66
2023/02/25 10:54:52;;;;;;;7.35;3.92;;;;;;;3.70;87.89;97292.20;1581646;91;21075;-66
2023/02/25 10:57:32;;;;;;;3.75;1.70;;;;;;;3.76;87.81;97299.58;1582969;90;21142;-68
2023/02/25 11:03:28;;;;;;;4.05;1.62;;;;;;;3.88;87.53;97304.94;1644828;87;21350;-65
2023/02/25 11:06:16;;;;;;;3.47;1.80;;;;;;;3.71;87.42;97306.75;1641251;87;21045;-65
2023/02/25 11:08:51;;;;;;;3.52;1.72;;;;;;;3.63;87.51;97310.70;1637181;87;21208;-64
2023/02/25 11:15:42;;;;;;;2.55;1.77;;;;;;;3.65;87.81;97320.02;1641380;87;21064;-65
2023/02/25 11:18:33;;;;;;;3.80;1.65;;;;;;;3.66;87.86;97322.95;1641470;87;21072;-62
2023/02/25 11:21:15;;;;;;;2.08;1.30;;;;;;;3.61;87.63;97323.67;1641568;86;21676;-63
2023/02/25 11:23:48;;;;;;;3.27;1.75;;;;;;;3.53;87.69;97336.20;1641589;87;21267;-63
2023/02/25 11:26:29;;;;;;;2.20;1.67;;;;;;;3.46;87.67;97345.20;1641479;87;21044;-59
2023/02/25 11:29:10;;;;;;;3.90;1.90;;;;;;;3.36;87.54;97341.86;1637915;87;21155;-67
2023/02/25 11:31:51;;;;;;;2.72;1.80;;;;;;;3.22;87.60;97329.34;1641503;86;21836;-64
2023/02/25 11:34:30;;;;;;;3.42;1.30;;;;;;;3.04;87.52;97346.66;1641393;86;21627;-62
2023/02/25 11:37:25;;;;;;;2.37;1.27;;;;;;;2.94;87.52;97350.65;1641383;85;21373;-65
2023/02/25 11:40:01;;;;;;;2.83;1.65;;;;;;;2.82;87.57;97350.40;1638885;87;21168;-63
2023/02/25 11:42:38;;;;;;;3.15;1.80;;;;;;;2.78;87.80;97360.52;1641552;87;21077;-64
2023/02/25 11:45:10;;;;;;;3.45;1.80;;;;;;;2.75;87.88;97370.98;1641758;87;21087;-65
2023/02/25 11:47:41;;;;;;;2.58;1.52;;;;;;;2.73;87.74;97371.52;1641426;86;21131;-62
2023/02/25 11:50:24;;;;;;;3.15;1.20;;;;;;;2.77;87.69;97380.73;1641434;87;21115;-69
2023/02/25 11:53:05;;;;;;;2.58;1.60;;;;;;;2.74;87.78;97373.16;1642650;87;21116;-65
2023/02/25 11:56:03;;;;;;;4.05;1.80;;;;;;;2.72;87.88;97387.91;1641536;87;21643;-66
2023/02/25 11:59:02;;;;;;;2.87;1.82;;;;;;;2.67;87.69;97384.73;1648830;84;21149;-61
2023/02/25 12:02:14;;;;;;;4.25;2.55;;;;;;;2.64;87.92;97386.18;1653663;87;21131;-63
2023/02/25 12:05:14;;;;;;;2.62;1.40;;;;;;;2.51;87.66;97395.45;1621409;88;21046;-64
2023/02/25 12:08:10;;;;;;;2.50;1.60;;;;;;;2.41;87.77;97407.53;1619243;88;21082;-64
2023/02/25 12:11:02;;;;;;;;;;;;;;;2.35;87.91;97407.84;1621726;88;21097;-65
2023/02/25 12:14:03;;;;;;;4.95;2.50;;;;;;;2.36;88.11;97406.92;1653504;87;20165;-64
2023/02/25 12:17:01;;;;;;;3.62;2.30;;;;;;;2.29;87.92;97428.73;1635718;86;21133;-64
2023/02/25 12:20:03;;;;;;;3.08;2.35;;;;;;;2.19;88.04;97427.55;1561234;91;21105;-64
2023/02/25 12:23:07;;;;;;;3.83;2.40;;;;;;;2.10;88.03;97433.14;1560789;91;21184;-63
2023/02/25 12:26:11;;;;;;;4.22;2.27;;;;;;;2.08;88.08;97442.70;1561366;92;21718;-65
2023/02/25 12:28:55;;;;;;;3.80;2.30;;;;;;;2.04;88.12;97451.46;1561409;88;21129;-63
2023/02/25 12:31:56;;;;;;;3.15;2.00;;;;;;;2.10;88.36;97448.58;1512005;94;21145;-63
2023/02/25 12:34:52;;;;;;;3.80;2.55;;;;;;;2.15;88.38;97441.47;1509142;93;21612;-63
2023/02/25 12:37:43;;;;;;;3.05;2.37;;;;;;;2.11;88.37;97459.28;1511873;95;21160;-63
2023/02/25 12:40:44;;;;;;;3.08;1.62;;;;;;;2.05;88.40;97457.01;1510978;95;21094;-61
2023/02/25 12:43:30;;;;;;;3.02;1.77;;;;;;;1.97;88.49;97463.34;1545364;92;21141;-63
2023/02/25 12:46:33;;;;;;;3.58;1.92;;;;;;;1.87;88.44;97482.70;1548290;92;21149;-62
2023/02/25 12:49:22;;;;;;;2.40;1.50;;;;;;;1.83;88.67;97481.20;1547955;92;21097;-64
2023/02/25 12:52:14;;;;;;;3.12;1.40;;;;;;;1.77;88.75;97490.50;1548208;92;21150;-63
2023/02/25 12:55:26;;;;;;;4.40;2.12;;;;;;;1.75;88.79;97502.59;1548357;92;21078;-62
2023/02/25 12:58:23;;;;;;;5.12;2.55;;;;;;;1.71;88.89;97510.06;1597832;88;21335;-63
2023/02/25 13:01:08;;;;;;;3.45;1.90;;;;;;;1.83;89.19;97513.36;1555475;92;21994;-61
2023/02/25 13:04:11;;;;;;;2.45;1.90;;;;;;;1.89;89.27;97518.22;1555008;92;21113;-63
2023/02/25 13:06:55;;;;;;;3.45;2.60;;;;;;;1.83;89.05;97526.23;1538465;93;21113;-64
2023/02/25 13:09:51;;;;;;;4.92;2.50;;;;;;;1.84;89.24;97533.03;1533679;93;21124;-61
2023/02/25 13:12:56;;;;;;;3.35;2.60;;;;;;;1.78;89.07;97535.90;1531843;93;21254;-61
2023/02/25 13:15:47;;;;;;;;;;;;;;;1.71;89.30;97541.80;1533964;93;21117;-61
2023/02/25 13:18:47;;;;;;;5.40;3.52;;;;;;;1.69;89.56;97546.63;1532135;93;20164;-61
2023/02/25 13:21:45;;;;;;;4.92;2.52;;;;;;;1.64;89.57;97556.28;1533567;93;21097;-64
2023/02/25 13:25:01;;;;;;;2.17;1.90;;;;;;;1.58;89.54;97566.86;1533002;93;21220;-62
2023/02/25 13:27:55;;;;;;;5.08;3.02;;;;;;;1.54;89.60;97577.29;1532544;93;21164;-62
2023/02/25 13:31:07;;;;;;;5.92;2.83;;;;;;;1.53;89.89;97576.89;1533666;93;21156;-62
2023/02/25 13:33:50;;;;;;;4.85;2.55;;;;;;;1.54;89.88;97577.29;1533849;93;21873;-62
2023/02/25 13:36:49;;;;;;;6.45;2.67;;;;;;;1.49;89.81;97595.95;1575148;91;21393;-62
2023/02/25 13:39:51;;;;;;;5.12;2.22;;;;;;;1.55;90.00;97594.38;1577029;90;21096;-61
2023/02/25 13:42:34;;;;;;;4.83;3.02;;;;;;;1.58;89.91;97599.02;1572826;90;21077;-62
2023/02/25 13:45:32;;;;;;;4.40;2.00;;;;;;;1.56;90.12;97612.76;1599177;89;21086;-62
2023/02/25 13:48:42;;;;;;;3.37;1.70;;;;;;;1.54;89.91;97613.30;1644783;87;21086;-62
2023/02/25 13:51:59;;;;;;;2.17;1.80;;;;;;;1.35;89.83;97617.58;1644859;87;21224;-61
2023/02/25 13:54:47;;;;;;;1.52;1.17;;;;;;;1.27;90.26;97617.08;1644948;87;21789;-61
2023/02/25 13:57:56;;;;;;;2.20;1.30;;;;;;;1.23;90.30;97638.66;1644581;87;21066;-60
2023/02/25 14:01:04;;;;;;;2.75;1.80;;;;;;;1.21;90.48;97643.89;1651851;87;21179;-60
2023/02/25 14:03:51;;;;;;;2.15;1.65;;;;;;;1.15;90.52;97645.86;1536091;90;21073;-61
2023/02/25 14:06:40;;;;;;;4.70;2.02;;;;;;;1.11;90.61;97651.13;1555749;91;21142;-61
2023/02/25 14:09:52;;;;;;;2.90;1.82;;;;;;;1.09;90.66;97655.53;1558900;90;21108;-62
2023/02/25 14:12:29;;;;;;;2.05;1.82;;;;;;;1.08;90.77;97658.98;1576117;91;21176;-62
2023/02/25 14:15:44;;;;;;;3.17;2.08;;;;;;;1.09;90.93;97663.23;1576576;89;21878;-64
2023/02/25 14:18:33;;;;;;;3.90;2.92;;;;;;;1.15;90.96;97665.14;1576443;90;21233;-64
2023/02/25 14:21:41;;;;;;;5.62;3.17;;;;;;;1.19;90.92;97675.70;1576101;89;21188;-62
2023/02/25 14:24:41;;;;;;;4.08;2.92;;;;;;;1.15;90.79;97677.57;1576479;90;21065;-61
2023/02/25 14:27:25;;;;;;;6.78;2.52;;;;;;;1.15;91.01;97686.98;1576403;91;21107;-62
2023/02/25 14:30:27;;;;;;;4.22;2.75;;;;;;;1.10;90.94;97698.31;1576471;89;21362;-62
2023/02/25 14:33:26;;;;;;;5.72;2.60;;;;;;;1.06;90.86;97694.18;1576435;90;21133;-61
2023/02/25 14:36:15;;;;;;;6.85;2.67;;;;;;;1.04;91.05;97698.57;1576380;91;21074;-61
2023/02/25 14:39:26;;;;;;;4.53;2.62;;;;;;;1.00;91.17;97717.56;1598825;89;21101;-60
2023/02/25 14:42:22;;;;;;;5.60;2.60;;;;;;;0.98;91.20;97714.25;1578335;91;21219;-61
2023/02/25 14:45:22;;;;;;;5.80;2.47;;;;;;;0.96;91.26;97722.91;1606166;88;21075;-62
2023/02/25 14:52:11;;;;;;;6.03;3.05;;;;;;;0.96;91.40;97739.62;1591831;89;21157;-61
2023/02/25 14:54:48;;;;;;;7.42;2.92;;;;;;;0.96;91.43;97754.58;1592181;90;21021;-59
2023/02/25 14:57:32;;;;;;;4.80;2.67;;;;;;;0.98;91.55;97760.50;1589382;88;21108;-64
2023/02/25 15:00:36;;;;;;;4.90;2.00;;;;;;;0.90;91.45;97754.83;1591786;88;21211;-60
2023/02/25 15:04:00;;;;;;;4.72;2.37;;;;;;;0.83;91.33;97764.95;1591702;90;21168;-60
2023/02/25 15:07:15;;;;;;;4.58;1.80;;;;;;;0.76;91.54;97785.37;1591806;90;21104;-61
2023/02/25 15:10:11;;;;;;;2.30;1.37;;;;;;;0.62;91.18;97789.30;1591886;90;21176;-60
2023/02/25 15:13:27;;;;;;;3.40;1.50;;;;;;;0.52;91.34;97787.95;1596258;88;21103;-60
2023/02/25 15:16:23;;;;;;;4.08;2.17;;;;;;;0.54;91.69;97796.45;1610764;89;21072;-60
2023/02/25 15:19:24;;;;;;;5.67;1.80;;;;;;;0.51;91.55;97813.26;1617441;87;21053;-61
2023/02/25 15:22:27;;;;;;;4.22;2.02;;;;;;;0.47;91.63;97818.10;1576229;89;21899;-61
2023/02/25 15:25:24;;;;;;;4.58;1.98;;;;;;;0.48;91.84;97830.06;1559240;92;21075;-60
2023/02/25 15:27:58;;;;;;;14.45;7.30;;;;;;;0.46;91.81;97834.86;1560179;91;21081;-62
2023/02/25 15:30:49;;;;;;;9.50;5.30;;;;;;;0.39;91.66;97843.22;1571814;90;21878;-60
2023/02/25 15:33:46;;;;;;;11.00;5.50;;;;;;;0.34;91.89;97831.02;1573351;90;21147;-60
2023/02/25 15:36:26;;;;;;;6.33;2.67;;;;;;;0.27;91.79;97854.77;1575893;91;21104;-60
2023/02/25 15:38:57;;;;;;;4.97;2.00;;;;;;;0.16;91.74;97860.28;1573165;91;21106;-62
2023/02/25 15:41:47;;;;;;;11.78;5.35;;;;;;;0.15;91.96;97868.88;1556065;91;21136;-61
2023/02/25 15:44:21;;;;;;;6.53;3.42;;;;;;;0.15;92.21;97874.02;1573124;90;21107;-61
2023/02/25 15:46:59;;;;;;;4.50;2.08;;;;;;;0.15;92.14;97884.73;1567014;91;21669;-62
2023/02/25 15:49:47;;;;;;;6.28;2.20;;;;;;;0.14;92.18;97890.31;1542591;90;22042;-63
2023/02/25 15:52:54;;;;;;;4.25;2.70;;;;;;;0.13;92.27;97904.02;1592870;90;21044;-60
2023/02/25 15:55:43;;;;;;;6.75;2.10;;;;;;;0.13;92.20;97903.19;1635255;87;21081;-61
2023/02/25 15:58:30;;;;;;;5.72;2.10;;;;;;;0.07;92.05;97911.93;1650960;85;21060;-62
2023/02/25 16:01:11;;;;;;;9.83;4.40;;;;;;;0.05;92.27;97916.27;1687613;84;21057;-61
2023/02/25 16:03:43;;;;;;;9.55;3.40;;;;;;;0.09;92.48;97924.72;1683660;85;21101;-60
2023/02/25 16:06:32;;;;;;;12.13;5.10;;;;;;;0.13;92.68;97925.83;1664454;86;21053;-61
2023/02/25 16:09:18;;;;;;;8.70;4.30;;;;;;;0.15;92.59;97926.63;1671576;84;21037;-60
2023/02/25 16:11:57;;;;;;;11.95;3.83;;;;;;;0.15;92.56;97935.61;1672763;86;21090;-60
2023/02/25 16:14:38;;;;;;;15.10;5.50;;;;;;;0.13;92.39;97943.80;1671166;85;21054;-61
2023/02/25 16:17:32;;;;;;;12.35;4.87;;;;;;;0.12;92.62;97941.30;1672698;86;21106;-60
2023/02/25 16:20:25;;;;;;;11.53;5.35;;;;;;;0.12;92.64;97945.98;1672443;84;21007;-61
2023/02/25 16:23:02;;;;;;;19.48;6.50;;;;;;;0.13;92.73;97957.91;1673008;86;21086;-59
2023/02/25 16:25:51;;;;;;;13.78;5.92;;;;;;;0.13;92.84;97961.76;1672975;86;21045;-60
2023/02/25 16:28:36;;;;;;;17.67;4.97;;;;;;;0.11;92.63;97963.56;1607533;89;21095;-60
2023/02/25 16:31:33;;;;;;;15.20;5.60;;;;;;;0.09;92.79;97974.77;1593981;90;21147;-61
2023/02/25 16:34:13;;;;;;;13.77;5.47;;;;;;;0.07;92.65;97978.66;1607841;87;21095;-61
2023/02/25 16:36:54;;;;;;;15.18;5.33;;;;;;;0.02;92.58;97990.78;1593469;88;21343;-60
2023/02/25 16:39:27;;;;;;;12.18;5.05;;;;;;;-0.03;92.62;97985.83;1606182;89;21660;-60
2023/02/25 16:42:04;;;;;;;13.03;4.40;;;;;;;-0.06;92.48;97982.49;1593683;90;21205;-62
2023/02/25 16:44:39;;;;;;;9.40;3.52;;;;;;;-0.12;92.43;97998.92;1607630;89;21058;-62
2023/02/25 16:47:28;;;;;;;11.50;4.03;;;;;;;-0.16;92.37;98004.22;1593753;90;21123;-60
2023/02/25 16:50:06;;;;;;;8.68;5.10;;;;;;;-0.17;92.42;98007.66;1579523;89;21138;-61
2023/02/25 16:52:44;;;;;;;8.73;4.60;;;;;;;-0.19;92.51;98015.86;1614069;89;21055;-61
2023/02/25 16:55:33;;;;;;;16.97;6.30;;;;;;;-0.19;92.61;98012.02;1598235;90;21127;-59
2023/02/25 16:58:23;;;;;;;11.05;4.40;;;;;;;-0.19;92.48;98029.97;1589557;89;21956;-60
2023/02/25 17:00:59;;;;;;;12.60;4.10;;;;;;;-0.26;92.41;98030.13;1598139;90;21056;-61
2023/02/25 17:03:48;;;;;;;6.75;2.83;;;;;;;-0.27;92.52;98028.47;1607131;89;21063;-60
2023/02/25 17:06:23;;;;;;;6.95;3.33;;;;;;;-0.26;92.50;98039.11;1632962;87;21057;-61
2023/02/25 17:08:55;;;;;;;6.10;2.85;;;;;;;-0.29;92.39;98037.92;1643772;87;21085;-60
2023/02/25 17:11:27;;;;;;;11.08;4.03;;;;;;;-0.31;92.46;98051.27;1643725;87;21096;-64
2023/02/25 17:14:07;;;;;;;5.00;3.25;;;;;;;-0.34;92.40;98050.05;1667948;86;21039;-62
2023/02/25 17:16:43;;;;;;;7.83;2.85;;;;;;;-0.36;92.34;98056.13;1668050;86;21084;-60
2023/02/25 17:19:18;;;;;;;5.67;2.58;;;;;;;-0.41;92.33;98060.10;1668115;86;21035;-59
2023/02/25 17:21:54;;;;;;;7.83;2.70;;;;;;;-0.45;92.35;98066.19;1668012;86;21053;-64
2023/02/25 17:24:31;;;;;;;6.42;2.45;;;;;;;-0.44;92.51;98073.02;1668331;86;21002;-61
2023/02/25 17:27:02;;;;;;;6.15;2.30;;;;;;;-0.44;92.55;98073.47;1667943;86;20999;-63
2023/02/25 17:29:42;;;;;;;6.83;2.60;;;;;;;-0.45;92.57;98072.60;1668050;86;21022;-60
2023/02/25 17:32:25;;;;;;;5.90;2.90;;;;;;;-0.46;92.63;98083.75;1667875;86;21590;-62
2023/02/25 17:35:05;;;;;;;9.00;3.15;;;;;;;-0.42;92.84;98080.23;1667760;86;21078;-63
2023/02/25 17:37:41;;;;;;;7.75;3.60;;;;;;;-0.38;92.81;98081.80;1668040;86;21077;-61
2023/02/25 17:40:15;;;;;;;8.78;4.47;;;;;;;-0.38;92.67;98097.19;1667950;85;21561;-60
2023/02/25 17:42:47;;;;;;;9.58;4.97;;;;;;;-0.36;92.92;98101.84;1668022;86;21082;-61
2023/02/25 17:45:42;;;;;;;15.30;6.75;;;;;;;-0.30;92.94;98102.94;1648821;86;21058;-62
2023/02/25 17:48:39;;;;;;;13.08;5.05;;;;;;;-0.21;92.99;98111.25;1668228;84;21680;-62
2023/02/25 17:51:13;;;;;;;9.80;3.65;;;;;;;-0.16;92.98;98120.49;1670314;84;21209;-63
2023/02/25 17:54:03;;;;;;;10.43;4.45;;;;;;;-0.11;92.99;98122.90;1667038;86;21107;-62
2023/02/25 17:56:36;;;;;;;9.18;4.62;;;;;;;-0.09;92.99;98134.80;1636910;87;21651;-62
2023/02/25 17:59:17;;;;;;;9.65;3.77;;;;;;;-0.04;93.23;98132.94;1636864;87;21057;-62
2023/02/25 18:02:01;;;;;;;10.82;5.50;;;;;;;0.02;93.27;98134.94;1635902;86;21515;-62
2023/02/25 18:04:41;;;;;;;14.38;6.00;;;;;;;0.06;93.37;98140.39;1688184;85;21162;-62
2023/02/25 18:07:36;;;;;;;10.95;4.62;;;;;;;0.08;93.35;98141.99;1636921;87;21106;-62
2023/02/25 18:10:27;;;;;;;9.85;5.10;;;;;;;0.11;93.42;98143.21;1665482;86;21012;-62
2023/02/25 18:13:05;;;;;;;11.48;4.60;;;;;;;0.12;93.49;98138.47;1638393;86;21081;-60